createdAt,value
2022-12-04T00:00:06.467Z,101288.41
2022-12-04T00:01:14.738Z,101284.88
2022-12-04T00:02:18.217Z,101283.16
2022-12-04T00:03:22.164Z,101288.41
2022-12-04T00:04:23.901Z,101283.16
2022-12-04T00:05:26.455Z,101292.81
2022-12-04T00:06:28.801Z,101287.56
2022-12-04T00:07:31.590Z,101283.31
2022-12-04T00:08:33.376Z,101291.16
2022-12-04T00:09:36.059Z,101275.56
2022-12-04T00:10:42.214Z,101285.19
2022-12-04T00:11:44.792Z,101280.94
2022-12-04T00:12:46.314Z,101286.19
2022-12-04T00:13:48.970Z,101276.47
2022-12-04T00:15:23.879Z,101279.03
2022-12-04T00:16:16.689Z,101272.81
2022-12-04T00:17:18.327Z,101276.22
2022-12-04T00:18:22.486Z,101271.81
2022-12-04T00:19:31.495Z,101269.13
2022-12-04T00:20:41.349Z,101269.13
2022-12-04T00:21:43.054Z,101269.13
2022-12-04T00:22:45.548Z,101270.03
2022-12-04T00:23:48.401Z,101271.75
2022-12-04T00:24:49.913Z,101268.22
2022-12-04T00:25:53.193Z,101269.91
2022-12-04T00:26:54.803Z,101266.38
2022-12-04T00:27:57.283Z,101267.16
2022-12-04T00:28:59.444Z,101268.09
2022-12-04T00:30:01.971Z,101264.59
2022-12-04T00:31:05.867Z,101262.03
2022-12-04T00:32:08.556Z,101264.75
2022-12-04T00:33:10.287Z,101264.78
2022-12-04T00:34:14.120Z,101259.63
2022-12-04T00:35:16.220Z,101262.25
2022-12-04T00:36:21.305Z,101252.66
2022-12-04T00:37:22.912Z,101251.81
2022-12-04T00:38:25.704Z,101254.53
2022-12-04T00:39:27.276Z,101254.56
2022-12-04T00:40:29.784Z,101249.34
2022-12-04T00:41:33.741Z,101247.56
2022-12-04T00:42:37.816Z,101250.13
2022-12-04T00:43:40.064Z,101247.50
2022-12-04T00:44:43.708Z,101249.19
2022-12-04T00:45:45.802Z,101238.78
2022-12-04T00:46:48.352Z,101245.78
2022-12-04T00:47:49.889Z,101246.56
2022-12-04T00:48:52.996Z,101245.72
2022-12-04T00:49:56.049Z,101243.19
2022-12-04T00:51:02.840Z,101241.47
2022-12-04T00:52:04.588Z,101251.09
2022-12-04T00:53:07.169Z,101248.41
2022-12-04T00:54:08.700Z,101245.78
2022-12-04T00:55:11.582Z,101247.50
2022-12-04T00:56:14.925Z,101250.13
2022-12-04T00:57:17.402Z,101244.03
2022-12-04T00:58:18.932Z,101244.09
2022-12-04T00:59:21.429Z,101237.94
2022-12-04T01:00:23.104Z,101241.41
2022-12-04T01:01:27.023Z,101243.19
2022-12-04T01:02:30.274Z,101250.97
2022-12-04T01:03:33.409Z,101253.53
2022-12-04T01:04:35.035Z,101244.03
2022-12-04T01:05:41.446Z,101248.41
2022-12-04T01:06:42.974Z,101246.72
2022-12-04T01:07:45.531Z,101249.34
2022-12-04T01:08:47.433Z,101246.72
2022-12-04T01:09:49.924Z,101252.88
2022-12-04T01:10:51.770Z,101248.56
2022-12-04T01:11:54.260Z,101249.41
2022-12-04T01:12:55.744Z,101247.56
2022-12-04T01:13:59.775Z,101247.56
2022-12-04T01:15:01.291Z,101247.50
2022-12-04T01:16:03.893Z,101248.28
2022-12-04T01:17:06.142Z,101257.06
2022-12-04T01:18:09.295Z,101251.81
2022-12-04T01:19:12.087Z,101257.91
2022-12-04T01:20:14.884Z,101258.00
2022-12-04T01:21:18.295Z,101253.66
2022-12-04T01:22:20.803Z,101252.81
2022-12-04T01:23:23.516Z,101252.75
2022-12-04T01:24:26.056Z,101258.00
2022-12-04T01:25:27.644Z,101259.63
2022-12-04T01:26:30.737Z,101251.69
2022-12-04T01:27:32.753Z,101259.56
2022-12-04T01:28:36.010Z,101256.94
2022-12-04T01:29:37.556Z,101258.63
2022-12-04T01:30:40.062Z,101258.63
2022-12-04T01:31:41.649Z,101259.56
2022-12-04T01:32:44.425Z,101260.41
2022-12-04T01:33:46.354Z,101260.50
2022-12-04T01:34:48.858Z,101262.19
2022-12-04T01:35:53.444Z,101261.31
2022-12-04T01:36:57.343Z,101256.94
2022-12-04T01:37:58.837Z,101253.44
2022-12-04T01:39:01.440Z,101256.06
2022-12-04T01:40:06.201Z,101255.16
2022-12-04T01:41:10.770Z,101251.69
2022-12-04T01:42:15.563Z,101253.41
2022-12-04T01:43:18.904Z,101250.78
2022-12-04T01:44:23.501Z,101251.69
2022-12-04T01:45:41.539Z,101251.69
2022-12-04T01:46:44.747Z,101247.38
2022-12-04T01:47:47.425Z,101251.81
2022-12-04T01:48:51.832Z,101249.19
2022-12-04T01:49:54.585Z,101239.63
2022-12-04T01:51:02.562Z,101256.22
2022-12-04T01:52:13.052Z,101245.72
2022-12-04T01:53:15.295Z,101248.28
2022-12-04T01:54:21.932Z,101246.50
2022-12-04T01:55:23.548Z,101244.75
2022-12-04T01:56:30.518Z,101240.31
2022-12-04T01:57:33.039Z,101240.41
2022-12-04T01:58:38.942Z,101239.50
2022-12-04T01:59:45.648Z,101236.88
2022-12-04T02:00:51.752Z,101235.06
2022-12-04T02:01:57.387Z,101227.16
2022-12-04T02:03:00.530Z,101234.16
2022-12-04T02:04:02.661Z,101237.66
2022-12-04T02:05:08.139Z,101228.88
2022-12-04T02:06:09.773Z,101231.53
2022-12-04T02:07:13.604Z,101237.66
2022-12-04T02:08:15.535Z,101233.31
2022-12-04T02:09:21.677Z,101232.41
2022-12-04T02:10:34.271Z,101231.50
2022-12-04T02:11:47.830Z,101227.94
2022-12-04T02:13:00.057Z,101230.53
2022-12-04T02:14:11.417Z,101234.88
2022-12-04T02:15:22.424Z,101227.00
2022-12-04T02:16:35.080Z,101231.34
2022-12-04T02:17:44.859Z,101236.59
2022-12-04T02:18:55.713Z,101231.34
2022-12-04T02:20:16.458Z,101237.47
2022-12-04T02:21:25.623Z,101234.03
2022-12-04T02:22:47.066Z,101242.00
2022-12-04T02:24:22.330Z,101240.31
2022-12-04T02:25:32.687Z,101236.88
2022-12-04T02:26:47.864Z,101237.78
2022-12-04T02:28:08.083Z,101233.41
2022-12-04T02:29:16.568Z,101236.88
2022-12-04T02:30:18.300Z,101225.38
2022-12-04T02:31:26.376Z,101236.75
2022-12-04T02:32:39.702Z,101235.03
2022-12-04T02:33:48.840Z,101230.69
2022-12-04T02:34:57.817Z,101236.88
2022-12-04T02:36:05.831Z,101234.31
2022-12-04T02:37:11.477Z,101236.94
2022-12-04T02:38:21.833Z,101229.97
2022-12-04T02:39:27.757Z,101227.44
2022-12-04T02:40:38.219Z,101231.81
2022-12-04T02:41:45.015Z,101223.09
2022-12-04T02:42:54.388Z,101228.28
2022-12-04T02:44:02.383Z,101227.44
2022-12-04T02:45:09.591Z,101225.81
2022-12-04T02:46:16.586Z,101231.88
2022-12-04T02:47:23.084Z,101230.09
2022-12-04T02:48:26.226Z,101234.44
2022-12-04T02:49:33.282Z,101234.44
2022-12-04T02:50:40.434Z,101233.59
2022-12-04T02:51:44.918Z,101231.81
2022-12-04T02:52:51.322Z,101241.47
2022-12-04T02:53:57.731Z,101238.91
2022-12-04T02:55:08.167Z,101238.06
2022-12-04T02:56:15.208Z,101242.50
2022-12-04T02:57:21.397Z,101238.19
2022-12-04T02:58:30.569Z,101234.72
2022-12-04T02:59:38.000Z,101236.50
2022-12-04T03:00:43.051Z,101232.97
2022-12-04T03:01:50.367Z,101229.38
2022-12-04T03:02:57.973Z,101232.97
2022-12-04T03:04:05.403Z,101227.84
2022-12-04T03:05:13.719Z,101234.00
2022-12-04T03:06:17.349Z,101230.53
2022-12-04T03:07:31.538Z,101233.09
2022-12-04T03:08:39.326Z,101229.63
2022-12-04T03:09:45.270Z,101226.91
2022-12-04T03:10:51.316Z,101234.78
2022-12-04T03:12:01.684Z,101230.47
2022-12-04T03:13:08.458Z,101231.38
2022-12-04T03:14:15.593Z,101233.09
2022-12-04T03:15:23.145Z,101238.38
2022-12-04T03:16:30.495Z,101233.16
2022-12-04T03:17:36.264Z,101234.13
2022-12-04T03:18:42.859Z,101236.75
2022-12-04T03:19:48.854Z,101238.47
2022-12-04T03:20:58.863Z,101246.13
2022-12-04T03:22:06.073Z,101243.50
2022-12-04T03:23:13.905Z,101248.69
2022-12-04T03:24:19.898Z,101233.81
2022-12-04T03:25:27.654Z,101245.13
2022-12-04T03:26:34.581Z,101246.06
2022-12-04T03:27:46.951Z,101233.94
2022-12-04T03:28:55.843Z,101234.72
2022-12-04T03:30:05.908Z,101239.06
2022-12-04T03:31:10.464Z,101238.19
2022-12-04T03:32:16.895Z,101228.63
2022-12-04T03:33:30.901Z,101239.13
2022-12-04T03:34:38.175Z,101234.84
2022-12-04T03:35:48.566Z,101240.16
2022-12-04T03:36:55.867Z,101239.38
2022-12-04T03:38:03.063Z,101240.38
2022-12-04T03:39:12.884Z,101236.91
2022-12-04T03:40:21.096Z,101238.66
2022-12-04T03:41:28.547Z,101228.94
2022-12-04T03:42:39.235Z,101233.38
2022-12-04T03:43:50.789Z,101240.28
2022-12-04T03:45:01.822Z,101235.03
2022-12-04T03:46:08.089Z,101234.19
2022-12-04T03:47:18.103Z,101231.56
2022-12-04T03:48:23.752Z,101225.56
2022-12-04T03:49:32.282Z,101228.13
2022-12-04T03:50:37.538Z,101228.13
2022-12-04T03:51:42.501Z,101231.66
2022-12-04T03:52:50.958Z,101225.69
2022-12-04T03:53:57.256Z,101230.94
2022-12-04T03:55:01.834Z,101229.16
2022-12-04T03:56:10.190Z,101231.84
2022-12-04T03:57:16.215Z,101227.59
2022-12-04T03:58:24.321Z,101227.72
2022-12-04T03:59:30.294Z,101233.88
2022-12-04T04:00:35.346Z,101230.47
2022-12-04T04:01:42.239Z,101236.63
2022-12-04T04:02:49.671Z,101237.53
2022-12-04T04:03:54.349Z,101237.66
2022-12-04T04:05:00.312Z,101234.16
2022-12-04T04:06:05.935Z,101234.16
2022-12-04T04:07:13.679Z,101236.75
2022-12-04T04:08:30.942Z,101232.44
2022-12-04T04:09:42.072Z,101229.03
2022-12-04T04:10:44.750Z,101232.56
2022-12-04T04:11:50.763Z,101228.19
2022-12-04T04:13:14.826Z,101228.25
2022-12-04T04:14:40.851Z,101228.38
2022-12-04T04:16:04.786Z,101232.81
2022-12-04T04:17:33.561Z,101236.50
2022-12-04T04:19:05.891Z,101234.84
2022-12-04T04:20:31.310Z,101237.56
2022-12-04T04:22:10.176Z,101245.44
2022-12-04T04:23:30.923Z,101235.84
2022-12-04T04:24:39.871Z,101234.25
2022-12-04T04:25:44.467Z,101236.88
2022-12-04T04:26:50.110Z,101238.59
2022-12-04T04:27:53.000Z,101239.44
2022-12-04T04:28:57.511Z,101239.44
2022-12-04T04:29:59.799Z,101234.22
2022-12-04T04:31:09.455Z,101233.34
2022-12-04T04:32:14.604Z,101234.22
2022-12-04T04:33:17.659Z,101236.88
2022-12-04T04:34:26.489Z,101238.59
2022-12-04T04:35:41.321Z,101235.13
2022-12-04T04:36:54.980Z,101233.34
2022-12-04T04:38:01.617Z,101226.41
2022-12-04T04:39:13.748Z,101229.09
2022-12-04T04:40:22.816Z,101231.63
2022-12-04T04:41:30.778Z,101229.03
2022-12-04T04:42:38.456Z,101227.25
2022-12-04T04:43:44.256Z,101233.34
2022-12-04T04:44:52.868Z,101229.03
2022-12-04T04:45:59.620Z,101232.50
2022-12-04T04:47:06.653Z,101231.50
2022-12-04T04:48:11.758Z,101232.38
2022-12-04T04:49:16.022Z,101226.25
2022-12-04T04:50:21.395Z,101228.88
2022-12-04T04:51:24.129Z,101235.00
2022-12-04T04:52:26.781Z,101229.75
2022-12-04T04:53:33.924Z,101226.25
2022-12-04T04:54:38.049Z,101229.81
2022-12-04T04:55:40.026Z,101237.59
2022-12-04T04:56:43.216Z,101235.84
2022-12-04T04:57:44.817Z,101234.84
2022-12-04T04:58:47.349Z,101234.00
2022-12-04T04:59:48.851Z,101231.38
2022-12-04T05:00:57.800Z,101227.00
2022-12-04T05:02:00.583Z,101226.13
2022-12-04T05:03:03.226Z,101226.13
2022-12-04T05:04:06.072Z,101227.00
2022-12-04T05:05:09.526Z,101230.47
2022-12-04T05:06:12.780Z,101226.13
2022-12-04T05:07:15.267Z,101222.59
2022-12-04T05:08:16.953Z,101224.31
2022-12-04T05:09:19.425Z,101222.59
2022-12-04T05:10:23.473Z,101221.69
2022-12-04T05:11:26.346Z,101217.38
2022-12-04T05:12:27.882Z,101217.38
2022-12-04T05:13:31.559Z,101213.97
2022-12-04T05:14:33.062Z,101215.78
2022-12-04T05:15:35.542Z,101223.66
2022-12-04T05:16:38.984Z,101220.25
2022-12-04T05:17:41.516Z,101219.44
2022-12-04T05:19:03.507Z,101218.75
2022-12-04T05:20:07.667Z,101219.66
2022-12-04T05:21:15.851Z,101218.94
2022-12-04T05:22:19.428Z,101216.50
2022-12-04T05:23:22.465Z,101219.25
2022-12-04T05:24:23.987Z,101222.91
2022-12-04T05:25:26.666Z,101221.25
2022-12-04T05:26:28.181Z,101222.28
2022-12-04T05:27:31.892Z,101231.09
2022-12-04T05:28:33.516Z,101222.41
2022-12-04T05:29:36.221Z,101221.69
2022-12-04T05:30:38.039Z,101223.47
2022-12-04T05:31:40.592Z,101223.63
2022-12-04T05:32:43.170Z,101224.50
2022-12-04T05:33:44.697Z,101217.56
2022-12-04T05:34:49.313Z,101224.63
2022-12-04T05:35:57.432Z,101223.91
2022-12-04T05:37:00.011Z,101216.09
2022-12-04T05:38:02.863Z,101214.41
2022-12-04T05:39:05.439Z,101218.94
2022-12-04T05:40:09.629Z,101214.66
2022-12-04T05:41:12.110Z,101215.56
2022-12-04T05:42:15.428Z,101218.31
2022-12-04T05:43:16.956Z,101223.59
2022-12-04T05:44:19.500Z,101224.53
2022-12-04T05:45:21.015Z,101222.81
2022-12-04T05:46:23.570Z,101218.56
2022-12-04T05:47:25.139Z,101214.22
2022-12-04T05:48:27.619Z,101216.84
2022-12-04T05:49:30.732Z,101223.94
2022-12-04T05:50:32.280Z,101223.00
2022-12-04T05:51:34.781Z,101223.00
2022-12-04T05:52:36.416Z,101214.41
2022-12-04T05:53:40.803Z,101216.16
2022-12-04T05:54:42.418Z,101219.63
2022-12-04T05:55:44.956Z,101219.63
2022-12-04T05:56:46.651Z,101219.63
2022-12-04T05:57:49.127Z,101215.25
2022-12-04T05:58:50.955Z,101223.97
2022-12-04T05:59:53.790Z,101220.50
2022-12-04T06:00:55.698Z,101218.72
2022-12-04T06:01:58.247Z,101225.72
2022-12-04T06:03:00.051Z,101220.50
2022-12-04T06:04:02.639Z,101220.63
2022-12-04T06:05:04.769Z,101219.72
2022-12-04T06:06:16.184Z,101225.00
2022-12-04T06:07:23.365Z,101220.75
2022-12-04T06:08:25.022Z,101225.97
2022-12-04T06:09:28.824Z,101226.88
2022-12-04T06:10:31.562Z,101227.81
2022-12-04T06:11:36.163Z,101217.34
2022-12-04T06:12:37.685Z,101225.19
2022-12-04T06:13:42.254Z,101227.81
2022-12-04T06:14:43.802Z,101224.38
2022-12-04T06:15:46.337Z,101224.38
2022-12-04T06:16:47.880Z,101222.69
2022-12-04T06:17:52.158Z,101224.50
2022-12-04T06:18:55.128Z,101227.13
2022-12-04T06:19:58.007Z,101221.97
2022-12-04T06:20:59.824Z,101221.88
2022-12-04T06:22:02.403Z,101224.63
2022-12-04T06:23:03.902Z,101227.25
2022-12-04T06:24:07.821Z,101217.69
2022-12-04T06:25:12.249Z,101221.28
2022-12-04T06:26:14.139Z,101223.03
2022-12-04T06:27:32.014Z,101225.72
2022-12-04T06:28:33.905Z,101230.09
2022-12-04T06:29:36.405Z,101226.69
2022-12-04T06:30:37.894Z,101231.94
2022-12-04T06:31:41.510Z,101226.75
2022-12-04T06:32:46.490Z,101236.31
2022-12-04T06:33:49.393Z,101236.34
2022-12-04T06:34:52.659Z,101236.44
2022-12-04T06:35:59.307Z,101239.88
2022-12-04T06:37:01.768Z,101238.97
2022-12-04T06:38:03.280Z,101238.94
2022-12-04T06:39:06.306Z,101238.84
2022-12-04T06:40:09.263Z,101235.34
2022-12-04T06:41:15.114Z,101230.88
2022-12-04T06:42:17.240Z,101238.63
2022-12-04T06:43:19.734Z,101241.19
2022-12-04T06:44:21.402Z,101236.81
2022-12-04T06:45:23.965Z,101236.69
2022-12-04T06:46:27.518Z,101234.00
2022-12-04T06:47:30.044Z,101240.03
2022-12-04T06:48:32.420Z,101241.69
2022-12-04T06:49:36.033Z,101242.47
2022-12-04T06:50:37.562Z,101240.66
2022-12-04T06:51:40.727Z,101241.44
2022-12-04T06:52:43.208Z,101244.00
2022-12-04T06:53:46.011Z,101243.03
2022-12-04T06:54:48.459Z,101236.81
2022-12-04T06:55:50.288Z,101248.03
2022-12-04T06:56:54.116Z,101244.50
2022-12-04T06:57:55.641Z,101246.19
2022-12-04T06:59:00.072Z,101247.91
2022-12-04T07:00:01.683Z,101246.09
2022-12-04T07:01:08.926Z,101246.00
2022-12-04T07:02:10.939Z,101252.91
2022-12-04T07:03:13.505Z,101252.84
2022-12-04T07:04:15.365Z,101258.00
2022-12-04T07:05:17.861Z,101255.34
2022-12-04T07:06:20.955Z,101250.97
2022-12-04T07:07:23.583Z,101250.97
2022-12-04T07:08:25.095Z,101247.34
2022-12-04T07:09:27.570Z,101248.22
2022-12-04T07:10:29.114Z,101248.22
2022-12-04T07:11:32.246Z,101248.13
2022-12-04T07:12:35.262Z,101245.47
2022-12-04T07:13:38.030Z,101243.63
2022-12-04T07:14:39.616Z,101243.63
2022-12-04T07:15:42.118Z,101245.34
2022-12-04T07:16:43.760Z,101241.81
2022-12-04T07:17:46.320Z,101240.88
2022-12-04T07:18:50.210Z,101239.06
2022-12-04T07:20:01.566Z,101240.72
2022-12-04T07:21:06.151Z,101243.25
2022-12-04T07:22:09.097Z,101245.88
2022-12-04T07:23:10.602Z,101243.25
2022-12-04T07:24:16.089Z,101246.69
2022-12-04T07:25:18.153Z,101243.16
2022-12-04T07:26:21.716Z,101241.44
2022-12-04T07:27:23.279Z,101244.84
2022-12-04T07:28:27.099Z,101248.31
2022-12-04T07:29:28.595Z,101249.19
2022-12-04T07:30:31.076Z,101256.06
2022-12-04T07:31:32.787Z,101250.75
2022-12-04T07:32:35.273Z,101250.75
2022-12-04T07:33:37.576Z,101265.53
2022-12-04T07:34:40.040Z,101256.91
2022-12-04T07:35:41.555Z,101258.63
2022-12-04T07:36:44.167Z,101257.75
2022-12-04T07:37:45.696Z,101263.00
2022-12-04T07:38:48.604Z,101259.47
2022-12-04T07:39:55.031Z,101266.34
2022-12-04T07:40:57.170Z,101260.19
2022-12-04T07:41:59.638Z,101263.72
2022-12-04T07:43:01.190Z,101259.34
2022-12-04T07:44:05.200Z,101272.38
2022-12-04T07:45:08.524Z,101269.75
2022-12-04T07:46:14.057Z,101261.91
2022-12-04T07:47:15.626Z,101265.38
2022-12-04T07:48:18.388Z,101268.84
2022-12-04T07:49:20.858Z,101269.72
2022-12-04T07:50:22.423Z,101265.31
2022-12-04T07:51:27.000Z,101269.63
2022-12-04T07:52:28.548Z,101270.47
2022-12-04T07:53:31.066Z,101274.81
2022-12-04T07:54:33.615Z,101270.44
2022-12-04T07:55:35.133Z,101272.13
2022-12-04T07:56:37.651Z,101268.59
2022-12-04T07:57:39.173Z,101272.94
2022-12-04T07:58:42.104Z,101277.22
2022-12-04T07:59:45.010Z,101273.72
2022-12-04T08:00:47.454Z,101275.34
2022-12-04T08:01:51.137Z,101275.34
2022-12-04T08:02:53.950Z,101263.94
2022-12-04T08:03:57.728Z,101270.06
2022-12-04T08:05:00.394Z,101270.91
2022-12-04T08:06:02.923Z,101277.00
2022-12-04T08:07:05.525Z,101281.41
2022-12-04T08:08:07.160Z,101277.00
2022-12-04T08:09:10.407Z,101276.94
2022-12-04T08:10:16.663Z,101276.88
2022-12-04T08:11:21.053Z,101276.88
2022-12-04T08:12:23.614Z,101274.19
2022-12-04T08:13:25.218Z,101275.03
2022-12-04T08:14:27.725Z,101273.19
2022-12-04T08:15:31.942Z,101268.81
2022-12-04T08:16:33.672Z,101277.47
2022-12-04T08:17:36.267Z,101273.06
2022-12-04T08:18:38.301Z,101277.47
2022-12-04T08:19:40.911Z,101278.31
2022-12-04T08:20:42.570Z,101279.16
2022-12-04T08:21:45.115Z,101272.16
2022-12-04T08:22:46.676Z,101273.91
2022-12-04T08:23:50.566Z,101275.75
2022-12-04T08:24:52.122Z,101274.91
2022-12-04T08:25:54.664Z,101271.38
2022-12-04T08:26:57.216Z,101265.19
2022-12-04T08:27:58.732Z,101267.81
2022-12-04T08:29:02.356Z,101268.69
2022-12-04T08:30:04.735Z,101264.28
2022-12-04T08:31:11.190Z,101266.78
2022-12-04T08:32:13.746Z,101268.53
2022-12-04T08:33:15.248Z,101265.00
2022-12-04T08:34:17.744Z,101269.41
2022-12-04T08:35:19.255Z,101269.41
2022-12-04T08:36:22.537Z,101273.75
2022-12-04T08:37:24.108Z,101272.84
2022-12-04T08:38:26.724Z,101277.13
2022-12-04T08:39:32.224Z,101278.84
2022-12-04T08:40:34.820Z,101272.69
2022-12-04T08:41:37.734Z,101281.34
2022-12-04T08:42:39.233Z,101276.09
2022-12-04T08:43:42.127Z,101279.50
2022-12-04T08:44:44.709Z,101272.56
2022-12-04T08:45:55.183Z,101269.00
2022-12-04T08:46:59.067Z,101275.09
2022-12-04T08:48:00.610Z,101269.81
2022-12-04T08:49:03.155Z,101269.81
2022-12-04T08:50:06.689Z,101273.34
2022-12-04T08:51:14.261Z,101265.47
2022-12-04T08:52:16.999Z,101275.97
2022-12-04T08:53:19.080Z,101272.47
2022-12-04T08:54:21.553Z,101266.38
2022-12-04T08:55:23.302Z,101275.09
2022-12-04T08:56:27.061Z,101274.25
2022-12-04T08:57:28.604Z,101273.34
2022-12-04T08:58:31.386Z,101271.56
2022-12-04T08:59:33.898Z,101274.16
2022-12-04T09:00:36.662Z,101272.34
2022-12-04T09:01:39.302Z,101264.44
2022-12-04T09:02:42.379Z,101276.63
2022-12-04T09:03:45.770Z,101278.31
2022-12-04T09:04:48.455Z,101279.13
2022-12-04T09:05:51.009Z,101284.38
2022-12-04T09:06:53.520Z,101274.75
2022-12-04T09:07:55.803Z,101262.59
2022-12-04T09:08:59.661Z,101279.13
2022-12-04T09:10:01.407Z,101277.28
2022-12-04T09:11:05.435Z,101280.69
2022-12-04T09:12:08.077Z,101279.78
2022-12-04T09:13:09.715Z,101273.63
2022-12-04T09:14:12.273Z,101280.56
2022-12-04T09:15:13.908Z,101278.72
2022-12-04T09:16:18.989Z,101279.63
2022-12-04T09:17:20.568Z,101277.81
2022-12-04T09:18:24.421Z,101282.13
2022-12-04T09:19:26.932Z,101277.75
2022-12-04T09:20:28.724Z,101277.75
2022-12-04T09:21:31.321Z,101275.97
2022-12-04T09:22:57.839Z,101275.91
2022-12-04T09:23:56.451Z,101265.44
2022-12-04T09:24:57.993Z,101265.44
2022-12-04T09:26:00.481Z,101261.00
2022-12-04T09:27:02.107Z,101264.44
2022-12-04T09:28:05.034Z,101263.50
2022-12-04T09:29:07.961Z,101267.84
2022-12-04T09:30:10.858Z,101273.06
2022-12-04T09:31:13.802Z,101280.03
2022-12-04T09:32:15.498Z,101284.34
2022-12-04T09:33:17.980Z,101271.22
2022-12-04T09:34:21.775Z,101265.97
2022-12-04T09:35:25.784Z,101273.78
2022-12-04T09:36:29.331Z,101271.22
2022-12-04T09:37:32.607Z,101270.41
2022-12-04T09:38:35.094Z,101275.66
2022-12-04T09:39:37.617Z,101273.78
2022-12-04T09:40:49.764Z,101276.47
2022-12-04T09:42:16.776Z,101283.44
2022-12-04T09:43:29.206Z,101276.47
2022-12-04T09:44:35.036Z,101276.47
2022-12-04T09:45:45.152Z,101286.97
2022-12-04T09:46:52.547Z,101292.22
2022-12-04T09:48:00.091Z,101292.22
2022-12-04T09:49:04.828Z,101295.78
2022-12-04T09:50:15.958Z,101292.34
2022-12-04T09:51:22.698Z,101288.81
2022-12-04T09:52:36.848Z,101290.53
2022-12-04T09:53:43.568Z,101290.53
2022-12-04T09:54:47.051Z,101301.03
2022-12-04T09:55:54.853Z,101289.59
2022-12-04T09:57:02.009Z,101297.41
2022-12-04T09:58:07.696Z,101300.75
2022-12-04T09:59:16.903Z,101298.03
2022-12-04T10:00:20.680Z,101288.34
2022-12-04T10:01:25.790Z,101292.63
2022-12-04T10:02:35.216Z,101286.47
2022-12-04T10:03:37.865Z,101290.00
2022-12-04T10:04:39.490Z,101293.53
2022-12-04T10:05:50.580Z,101298.00
2022-12-04T10:07:02.703Z,101290.13
2022-12-04T10:08:10.809Z,101290.06
2022-12-04T10:09:20.927Z,101299.72
2022-12-04T10:10:30.128Z,101283.03
2022-12-04T10:11:45.641Z,101286.47
2022-12-04T10:12:59.146Z,101276.72
2022-12-04T10:14:15.183Z,101275.75
2022-12-04T10:15:29.644Z,101268.66
2022-12-04T10:16:46.746Z,101271.22
2022-12-04T10:18:03.898Z,101273.69
2022-12-04T10:19:16.742Z,101271.88
2022-12-04T10:20:34.350Z,101274.34
2022-12-04T10:21:47.919Z,101263.78
2022-12-04T10:22:59.975Z,101275.00
2022-12-04T10:24:21.406Z,101277.56
2022-12-04T10:25:25.981Z,101281.03
2022-12-04T10:26:33.828Z,101274.84
2022-12-04T10:27:42.973Z,101273.03
2022-12-04T10:28:55.232Z,101278.28
2022-12-04T10:30:03.465Z,101275.66
2022-12-04T10:31:11.148Z,101276.44
2022-12-04T10:32:21.447Z,101278.19
2022-12-04T10:33:28.723Z,101263.31
2022-12-04T10:34:32.730Z,101259.75
2022-12-04T10:35:37.166Z,101265.06
2022-12-04T10:36:44.071Z,101258.97
2022-12-04T10:37:48.522Z,101251.09
2022-12-04T10:38:54.964Z,101259.75
2022-12-04T10:40:03.552Z,101250.97
2022-12-04T10:41:15.253Z,101249.13
2022-12-04T10:42:26.433Z,101249.88
2022-12-04T10:43:37.207Z,101254.16
2022-12-04T10:44:39.856Z,101251.47
2022-12-04T10:45:41.452Z,101256.72
2022-12-04T10:46:46.326Z,101256.72
2022-12-04T10:47:51.650Z,101256.72
2022-12-04T10:48:58.924Z,101257.47
2022-12-04T10:50:04.781Z,101247.06
2022-12-04T10:51:10.833Z,101248.78
2022-12-04T10:52:13.792Z,101249.53
2022-12-04T10:53:17.655Z,101252.94
2022-12-04T10:54:22.346Z,101251.13
2022-12-04T10:55:32.515Z,101246.72
2022-12-04T10:56:34.042Z,101250.16
2022-12-04T10:57:39.007Z,101247.50
2022-12-04T10:58:40.936Z,101250.13
2022-12-04T10:59:51.305Z,101243.94
2022-12-04T11:01:03.192Z,101248.25
2022-12-04T11:02:17.289Z,101247.34
2022-12-04T11:03:25.271Z,101247.44
2022-12-04T11:04:30.790Z,101233.44
2022-12-04T11:05:36.316Z,101238.59
2022-12-04T11:06:38.192Z,101234.22
2022-12-04T11:07:46.858Z,101226.34
2022-12-04T11:08:51.829Z,101225.41
2022-12-04T11:10:03.519Z,101228.03
2022-12-04T11:11:08.883Z,101223.66
2022-12-04T11:12:19.541Z,101220.94
2022-12-04T11:13:23.425Z,101221.78
2022-12-04T11:14:25.056Z,101227.03
2022-12-04T11:15:30.156Z,101220.03
2022-12-04T11:16:39.502Z,101225.19
2022-12-04T11:17:41.241Z,101217.31
2022-12-04T11:18:50.180Z,101216.47
2022-12-04T11:20:01.278Z,101211.28
2022-12-04T11:21:05.341Z,101217.44
2022-12-04T11:22:14.392Z,101211.44
2022-12-04T11:23:18.374Z,101211.50
2022-12-04T11:24:24.286Z,101208.03
2022-12-04T11:25:27.902Z,101201.06
2022-12-04T11:26:33.845Z,101214.97
2022-12-04T11:27:36.510Z,101210.56
2022-12-04T11:28:42.866Z,101208.03
2022-12-04T11:29:46.208Z,101212.44
2022-12-04T11:30:52.167Z,101203.75
2022-12-04T11:31:55.597Z,101207.34
2022-12-04T11:32:58.916Z,101207.34
2022-12-04T11:34:02.735Z,101207.34
2022-12-04T11:35:18.255Z,101198.66
2022-12-04T11:36:23.732Z,101200.38
2022-12-04T11:37:28.398Z,101196.81
2022-12-04T11:38:34.351Z,101191.56
2022-12-04T11:39:41.510Z,101200.38
2022-12-04T11:40:48.147Z,101205.47
2022-12-04T11:41:59.803Z,101197.66
2022-12-04T11:43:05.622Z,101206.38
2022-12-04T11:44:22.872Z,101202.22
2022-12-04T11:45:25.528Z,101208.31
2022-12-04T11:46:28.822Z,101209.31
2022-12-04T11:47:33.836Z,101212.06
2022-12-04T11:48:42.930Z,101201.72
2022-12-04T11:49:45.714Z,101202.63
2022-12-04T11:50:55.103Z,101200.94
2022-12-04T11:52:11.292Z,101196.47
2022-12-04T11:53:17.522Z,101199.84
2022-12-04T11:54:29.979Z,101197.22
2022-12-04T11:55:42.051Z,101198.09
2022-12-04T11:56:48.776Z,101193.69
2022-12-04T11:58:13.030Z,101192.78
2022-12-04T11:59:36.108Z,101191.84
2022-12-04T12:00:48.407Z,101194.41
2022-12-04T12:01:58.834Z,101188.28
2022-12-04T12:03:13.713Z,101193.53
2022-12-04T12:04:34.527Z,101190.00
2022-12-04T12:06:01.512Z,101194.34
2022-12-04T12:07:13.713Z,101190.91
2022-12-04T12:08:31.016Z,101195.41
2022-12-04T12:09:42.559Z,101190.16
2022-12-04T12:10:56.368Z,101194.47
2022-12-04T12:12:06.862Z,101192.78
2022-12-04T12:13:19.206Z,101188.44
2022-12-04T12:14:31.249Z,101186.72
2022-12-04T12:15:41.691Z,101202.47
2022-12-04T12:16:59.068Z,101190.31
2022-12-04T12:18:19.239Z,101187.59
2022-12-04T12:19:36.428Z,101196.31
2022-12-04T12:20:44.389Z,101191.94
2022-12-04T12:22:02.070Z,101191.97
2022-12-04T12:23:21.842Z,101201.66
2022-12-04T12:24:27.910Z,101192.84
2022-12-04T12:25:38.562Z,101193.84
2022-12-04T12:26:49.933Z,101193.84
2022-12-04T12:28:04.760Z,101196.47
2022-12-04T12:29:19.951Z,101196.47
2022-12-04T12:30:23.049Z,101199.09